Time;durP1;ratioP1;P1;durP2;ratioP2;P2;SDS_P1;SDS_P2;PMS_P1;PMS_P2;Temp;Humidity;BMP_temperature;BMP_pressure;BME280_temperature;BME280_humidity;BME280_pressure;Samples;Min_cycle;Max_cycle;Signal;HPM_P1;HPM_P2
2022/06/21 00:00:38;;;;;;;13.30;4.32;;;;;;;;;;4973103;28;20045;-78
2022/06/21 00:03:07;;;;;;;13.95;5.00;;;;;;;;;;4972116;28;20022;-78
2022/06/21 00:05:44;;;;;;;14.50;4.55;;;;;;;;;;4972319;28;20030;-78
2022/06/21 00:08:16;;;;;;;17.98;4.75;;;;;;;;;;4972799;28;20023;-78
2022/06/21 00:10:42;;;;;;;13.60;4.65;;;;;;;;;;4972426;28;20023;-78
2022/06/21 00:13:16;;;;;;;13.20;4.78;;;;;;;;;;4971263;28;20031;-78
2022/06/21 00:15:43;;;;;;;16.55;4.50;;;;;;;;;;4972465;28;20049;-79
2022/06/21 00:18:12;;;;;;;15.13;5.32;;;;;;;;;;4972294;28;20038;-78
2022/06/21 00:20:38;;;;;;;15.63;5.00;;;;;;;;;;4972409;28;20027;-79
2022/06/21 00:23:05;;;;;;;13.07;4.50;;;;;;;;;;4972434;28;20019;-78
2022/06/21 00:25:31;;;;;;;8.90;4.50;;;;;;;;;;4972529;28;20033;-78
2022/06/21 00:27:57;;;;;;;13.30;4.07;;;;;;;;;;4972433;28;20218;-78
2022/06/21 00:30:24;;;;;;;14.50;4.85;;;;;;;;;;4972245;28;20029;-78
2022/06/21 00:32:52;;;;;;;13.35;5.68;;;;;;;;;;4975649;28;20026;-78
2022/06/21 00:35:21;;;;;;;17.73;5.43;;;;;;;;;;4976116;28;20498;-79
2022/06/21 00:37:48;;;;;;;14.25;5.15;;;;;;;;;;4976266;28;20026;-78
2022/06/21 00:40:33;;;;;;;17.55;5.53;;;;;;;;;;4976210;28;20027;-78
2022/06/21 00:43:00;;;;;;;12.93;5.18;;;;;;;;;;4973492;28;20038;-79
2022/06/21 00:45:29;;;;;;;15.55;4.95;;;;;;;;;;4976213;28;20027;-79
2022/06/21 00:47:57;;;;;;;11.73;4.85;;;;;;;;;;4976096;28;20077;-79
2022/06/21 00:50:26;;;;;;;14.70;5.00;;;;;;;;;;4976054;28;20033;-79
2022/06/21 00:52:55;;;;;;;12.07;4.88;;;;;;;;;;4976026;28;20027;-78
2022/06/21 00:55:30;;;;;;;13.75;4.97;;;;;;;;;;4976369;28;20031;-79
2022/06/21 00:57:57;;;;;;;13.43;4.93;;;;;;;;;;4973042;28;20035;-79
2022/06/21 01:00:25;;;;;;;10.25;4.78;;;;;;;;;;4974505;28;20045;-79
2022/06/21 01:02:52;;;;;;;18.67;4.88;;;;;;;;;;4975806;28;20031;-78
2022/06/21 01:05:18;;;;;;;14.05;5.28;;;;;;;;;;4975921;28;20027;-79
2022/06/21 01:07:46;;;;;;;15.73;4.57;;;;;;;;;;4975683;28;20029;-79
2022/06/21 01:10:14;;;;;;;11.18;4.95;;;;;;;;;;4975414;28;20974;-79
2022/06/21 01:12:46;;;;;;;16.58;5.25;;;;;;;;;;4975887;28;20057;-79
2022/06/21 01:15:16;;;;;;;19.15;5.10;;;;;;;;;;4975071;28;20112;-79
2022/06/21 01:17:43;;;;;;;12.77;4.75;;;;;;;;;;4975430;28;20038;-79
2022/06/21 01:20:11;;;;;;;11.52;4.65;;;;;;;;;;4975039;28;20370;-80
2022/06/21 01:22:56;;;;;;;15.48;4.85;;;;;;;;;;4975451;28;20015;-79
2022/06/21 01:25:23;;;;;;;25.42;5.70;;;;;;;;;;4960231;28;20027;-79
2022/06/21 01:27:51;;;;;;;19.52;4.75;;;;;;;;;;4971922;28;20027;-80
2022/06/21 01:30:17;;;;;;;10.40;4.72;;;;;;;;;;4974803;28;20037;-79
2022/06/21 01:32:44;;;;;;;11.73;4.28;;;;;;;;;;4975284;28;20033;-79
2022/06/21 01:35:17;;;;;;;14.50;4.75;;;;;;;;;;4975330;28;20018;-79
2022/06/21 01:37:43;;;;;;;11.68;4.38;;;;;;;;;;4975140;28;20537;-79
2022/06/21 01:40:25;;;;;;;12.98;4.72;;;;;;;;;;4975085;28;20077;-79
2022/06/21 01:42:54;;;;;;;14.45;4.88;;;;;;;;;;4970861;28;20026;-80
2022/06/21 01:45:27;;;;;;;11.68;3.95;;;;;;;;;;4975464;28;20033;-79
2022/06/21 01:47:58;;;;;;;11.15;4.80;;;;;;;;;;4974780;28;20027;-79
2022/06/21 01:50:24;;;;;;;9.18;4.35;;;;;;;;;;4974809;28;20022;-80
2022/06/21 01:52:52;;;;;;;12.70;4.50;;;;;;;;;;4974834;28;20031;-80
2022/06/21 01:55:28;;;;;;;11.73;4.65;;;;;;;;;;4974735;28;20030;-80
2022/06/21 01:57:57;;;;;;;22.83;4.40;;;;;;;;;;4971402;28;20035;-80
2022/06/21 02:00:23;;;;;;;9.15;4.05;;;;;;;;;;4975041;28;20134;-79
2022/06/21 02:02:52;;;;;;;10.32;4.60;;;;;;;;;;4974629;28;20525;-80
2022/06/21 02:05:20;;;;;;;15.43;4.22;;;;;;;;;;4974597;28;20037;-80
2022/06/21 02:07:50;;;;;;;9.18;4.75;;;;;;;;;;4974772;28;20019;-80
2022/06/21 02:10:32;;;;;;;16.70;4.85;;;;;;;;;;4974414;28;20519;-80
2022/06/21 02:13:31;;;;;;;15.88;5.32;;;;;;;;;;4971819;28;20019;-80
2022/06/21 02:16:00;;;;;;;19.85;5.95;;;;;;;;;;4911655;29;20044;-80
2022/06/21 02:18:29;;;;;;;17.80;5.75;;;;;;;;;;4915211;29;20513;-80
2022/06/21 02:20:55;;;;;;;14.88;5.43;;;;;;;;;;4910483;29;20036;-80
2022/06/21 02:23:22;;;;;;;13.98;5.35;;;;;;;;;;4910709;29;20024;-81
2022/06/21 02:25:50;;;;;;;18.08;5.57;;;;;;;;;;4911664;29;20037;-80
2022/06/21 02:28:17;;;;;;;17.60;5.53;;;;;;;;;;4898082;29;20036;-80
2022/06/21 02:30:44;;;;;;;22.65;6.20;;;;;;;;;;4911056;29;20071;-80
2022/06/21 02:33:17;;;;;;;15.43;5.68;;;;;;;;;;4910267;29;20044;-80
2022/06/21 02:35:45;;;;;;;11.98;5.38;;;;;;;;;;4910050;29;20166;-80
2022/06/21 02:38:20;;;;;;;21.85;5.68;;;;;;;;;;4910231;29;20088;-80
2022/06/21 02:40:51;;;;;;;16.63;5.63;;;;;;;;;;4911070;29;20040;-80
2022/06/21 02:43:17;;;;;;;;;;;;;;;;;;4914496;29;20028;-80
2022/06/21 02:45:56;;;;;;;15.73;5.25;;;;;;;;;;4910548;29;19918;-81
2022/06/21 02:48:27;;;;;;;14.93;5.43;;;;;;;;;;4910730;29;20052;-81
2022/06/21 02:50:59;;;;;;;14.15;6.00;;;;;;;;;;4914966;29;20038;-81
2022/06/21 02:53:31;;;;;;;14.13;5.15;;;;;;;;;;4934779;29;20024;-81
2022/06/21 02:56:08;;;;;;;18.70;6.28;;;;;;;;;;4934804;29;20030;-81
2022/06/21 02:58:39;;;;;;;15.85;6.05;;;;;;;;;;4935546;29;20032;-81
2022/06/21 03:01:09;;;;;;;18.35;6.07;;;;;;;;;;4933826;29;20046;-81
2022/06/21 03:03:36;;;;;;;15.63;5.60;;;;;;;;;;4933774;29;20028;-81
2022/06/21 03:06:06;;;;;;;10.07;4.57;;;;;;;;;;4934909;29;20396;-81
2022/06/21 03:08:33;;;;;;;16.05;5.07;;;;;;;;;;4934931;29;20464;-81
2022/06/21 03:11:00;;;;;;;11.43;4.97;;;;;;;;;;4934444;29;20420;-81
2022/06/21 03:13:28;;;;;;;14.68;4.85;;;;;;;;;;4935225;29;20023;-81
2022/06/21 03:15:58;;;;;;;14.50;4.68;;;;;;;;;;4970779;28;20055;-81
2022/06/21 03:18:26;;;;;;;14.37;5.10;;;;;;;;;;4973491;28;20029;-81
2022/06/21 03:20:54;;;;;;;14.57;5.18;;;;;;;;;;4972970;28;20483;-81
2022/06/21 03:23:20;;;;;;;11.63;4.78;;;;;;;;;;4973080;28;20022;-81
2022/06/21 03:26:03;;;;;;;11.15;5.03;;;;;;;;;;4972776;28;20023;-81
2022/06/21 03:28:34;;;;;;;14.00;4.90;;;;;;;;;;4941652;28;20031;-81
2022/06/21 03:31:08;;;;;;;14.73;5.13;;;;;;;;;;4973100;28;20031;-81
2022/06/21 03:33:35;;;;;;;11.90;4.75;;;;;;;;;;4973466;28;20030;-81
2022/06/21 03:36:04;;;;;;;10.55;5.20;;;;;;;;;;4972925;28;20023;-81
2022/06/21 03:38:31;;;;;;;8.30;4.65;;;;;;;;;;4973260;28;20030;-81
2022/06/21 03:43:44;;;;;;;18.05;5.97;;;;;;;;;;4973042;28;20019;-81
2022/06/21 03:46:13;;;;;;;10.93;5.25;;;;;;;;;;4972778;28;20496;-81
2022/06/21 03:48:45;;;;;;;12.38;5.45;;;;;;;;;;4972126;28;20551;-81
2022/06/21 03:51:19;;;;;;;13.23;5.20;;;;;;;;;;4972616;28;20530;-82
2022/06/21 03:53:49;;;;;;;11.60;4.72;;;;;;;;;;4972292;28;20045;-81
2022/06/21 03:56:18;;;;;;;9.70;4.75;;;;;;;;;;4972645;28;20029;-81
2022/06/21 03:58:49;;;;;;;13.13;4.85;;;;;;;;;;4972712;28;20027;-82
2022/06/21 04:01:21;;;;;;;11.82;4.43;;;;;;;;;;4972491;28;20035;-81
2022/06/21 04:03:57;;;;;;;11.05;5.18;;;;;;;;;;4973221;28;20507;-81
2022/06/21 04:06:26;;;;;;;11.07;4.47;;;;;;;;;;4972523;28;20034;-82
2022/06/21 04:08:56;;;;;;;14.10;5.13;;;;;;;;;;4972116;28;20026;-81
2022/06/21 04:11:26;;;;;;;12.88;5.68;;;;;;;;;;4972406;28;20033;-82
2022/06/21 04:13:57;;;;;;;15.85;4.97;;;;;;;;;;4972442;28;20023;-81
2022/06/21 04:16:42;;;;;;;13.65;5.40;;;;;;;;;;4957295;28;20023;-82
2022/06/21 04:19:12;;;;;;;11.38;4.82;;;;;;;;;;4970636;28;20034;-81
2022/06/21 04:21:43;;;;;;;10.35;4.93;;;;;;;;;;4971286;28;20514;-81
2022/06/21 04:24:30;;;;;;;16.95;5.57;;;;;;;;;;4971829;28;20027;-81
2022/06/21 04:27:01;;;;;;;11.63;4.68;;;;;;;;;;4970960;28;20039;-82
2022/06/21 04:29:27;;;;;;;;;;;;;;;;;;4972844;28;20021;-82
2022/06/21 04:32:02;;;;;;;12.25;4.88;;;;;;;;;;4972376;28;19910;-82
2022/06/21 04:34:49;;;;;;;12.40;5.15;;;;;;;;;;4957746;28;20048;-82
2022/06/21 04:37:20;;;;;;;11.55;5.43;;;;;;;;;;4971914;28;20391;-82
2022/06/21 04:39:52;;;;;;;15.35;5.47;;;;;;;;;;4972824;28;20022;-82
2022/06/21 04:42:23;;;;;;;15.45;5.40;;;;;;;;;;4971856;28;20527;-82
2022/06/21 04:45:02;;;;;;;13.85;5.28;;;;;;;;;;4972435;28;20037;-82
2022/06/21 04:47:32;;;;;;;16.60;5.57;;;;;;;;;;4972293;28;20222;-82
2022/06/21 04:50:13;;;;;;;13.80;5.22;;;;;;;;;;4954947;28;20019;-82
2022/06/21 04:52:42;;;;;;;12.38;5.13;;;;;;;;;;4971842;28;20029;-82
2022/06/21 04:55:13;;;;;;;8.63;4.78;;;;;;;;;;4972312;28;20384;-82
2022/06/21 04:57:39;;;;;;;11.45;4.72;;;;;;;;;;4971048;28;20022;-82
2022/06/21 05:00:07;;;;;;;16.40;5.40;;;;;;;;;;4972095;28;20029;-82
2022/06/21 05:02:37;;;;;;;14.38;5.50;;;;;;;;;;4970959;28;20026;-82
2022/06/21 05:05:05;;;;;;;13.70;4.90;;;;;;;;;;4971912;28;20025;-82
2022/06/21 05:07:33;;;;;;;12.73;5.00;;;;;;;;;;4971947;28;20026;-82
2022/06/21 05:10:00;;;;;;;15.95;5.55;;;;;;;;;;4972049;28;20031;-82
2022/06/21 05:12:37;;;;;;;13.68;4.97;;;;;;;;;;4972317;28;20496;-82
2022/06/21 05:15:04;;;;;;;13.07;4.78;;;;;;;;;;4971652;28;20053;-82
2022/06/21 05:17:32;;;;;;;15.50;5.82;;;;;;;;;;4972909;28;20492;-82
2022/06/21 05:20:02;;;;;;;11.48;5.22;;;;;;;;;;4975362;28;20415;-82
2022/06/21 05:22:31;;;;;;;13.50;5.40;;;;;;;;;;4975492;28;20042;-82
2022/06/21 05:24:58;;;;;;;13.57;5.25;;;;;;;;;;4975697;28;20427;-82
2022/06/21 05:27:40;;;;;;;11.25;5.53;;;;;;;;;;4975781;28;20035;-81
2022/06/21 05:30:08;;;;;;;13.35;5.32;;;;;;;;;;4975163;28;20026;-82
2022/06/21 05:32:41;;;;;;;12.50;5.30;;;;;;;;;;4975456;28;20037;-82
2022/06/21 05:35:10;;;;;;;14.23;5.18;;;;;;;;;;4974719;28;20030;-82
2022/06/21 05:37:39;;;;;;;17.08;6.05;;;;;;;;;;4975135;28;20019;-82
2022/06/21 05:40:12;;;;;;;11.70;5.07;;;;;;;;;;4975042;28;20515;-82
2022/06/21 05:42:39;;;;;;;16.05;5.63;;;;;;;;;;4974169;28;20027;-82
2022/06/21 05:45:16;;;;;;;20.15;5.63;;;;;;;;;;4975174;28;20018;-82
2022/06/21 05:47:42;;;;;;;11.77;5.22;;;;;;;;;;4974786;28;20037;-82
2022/06/21 05:50:11;;;;;;;13.55;5.35;;;;;;;;;;4974511;28;20015;-82
2022/06/21 05:52:41;;;;;;;12.60;5.07;;;;;;;;;;4975311;28;20069;-82
2022/06/21 05:55:33;;;;;;;12.02;5.13;;;;;;;;;;4975012;28;20026;-82
2022/06/21 05:58:06;;;;;;;16.60;5.85;;;;;;;;;;4969827;28;20099;-82
2022/06/21 06:00:33;;;;;;;15.35;5.63;;;;;;;;;;4956624;28;20077;-82
2022/06/21 06:03:04;;;;;;;20.98;5.85;;;;;;;;;;4972263;28;20465;-82
2022/06/21 06:05:32;;;;;;;16.48;5.25;;;;;;;;;;4974149;28;20031;-82
2022/06/21 06:08:08;;;;;;;31.27;6.78;;;;;;;;;;4938741;28;20041;-83
2022/06/21 06:10:36;;;;;;;19.13;5.18;;;;;;;;;;4972890;28;20022;-73
2022/06/21 06:13:06;;;;;;;32.33;5.82;;;;;;;;;;4973215;28;20060;-74
2022/06/21 06:15:34;;;;;;;16.85;4.75;;;;;;;;;;4974120;28;20050;-73
2022/06/21 06:18:12;;;;;;;12.75;5.07;;;;;;;;;;4973718;28;20408;-74
2022/06/21 06:20:41;;;;;;;13.73;4.75;;;;;;;;;;4973667;28;20415;-73
2022/06/21 06:23:13;;;;;;;22.88;5.47;;;;;;;;;;4968278;28;20029;-72
2022/06/21 06:25:48;;;;;;;17.05;5.50;;;;;;;;;;4973982;28;20517;-72
2022/06/21 06:28:25;;;;;;;16.33;5.40;;;;;;;;;;4973420;28;20041;-72
2022/06/21 06:31:14;;;;;;;16.95;6.00;;;;;;;;;;4969874;28;20021;-72
2022/06/21 06:33:42;;;;;;;16.90;5.45;;;;;;;;;;4971791;28;20056;-73
2022/06/21 06:36:10;;;;;;;13.77;5.07;;;;;;;;;;4974017;28;20027;-72
2022/06/21 06:38:37;;;;;;;16.00;5.28;;;;;;;;;;4967827;28;20030;-74
2022/06/21 06:41:08;;;;;;;19.45;5.32;;;;;;;;;;4973541;28;20045;-73
2022/06/21 06:43:37;;;;;;;17.00;5.50;;;;;;;;;;4956212;28;20053;-74
2022/06/21 06:46:05;;;;;;;18.45;4.95;;;;;;;;;;4973589;28;20041;-73
2022/06/21 06:48:36;;;;;;;16.48;5.45;;;;;;;;;;4973688;28;20027;-72
2022/06/21 06:51:14;;;;;;;14.32;5.53;;;;;;;;;;4973370;28;20033;-72
2022/06/21 06:53:44;;;;;;;11.57;5.15;;;;;;;;;;4973406;28;20037;-71
2022/06/21 06:56:22;;;;;;;15.05;5.28;;;;;;;;;;4973289;28;20034;-71
2022/06/21 06:59:04;;;;;;;13.77;5.35;;;;;;;;;;4956072;28;20017;-71
2022/06/21 07:01:42;;;;;;;15.55;5.95;;;;;;;;;;4941681;28;20042;-72
2022/06/21 07:04:10;;;;;;;14.98;4.53;;;;;;;;;;4973023;28;20019;-71
2022/06/21 07:06:44;;;;;;;16.52;5.57;;;;;;;;;;4973842;28;20023;-71
2022/06/21 07:09:13;;;;;;;17.15;5.38;;;;;;;;;;4973032;28;20476;-72
2022/06/21 07:11:40;;;;;;;16.05;5.18;;;;;;;;;;4973191;28;20041;-71
2022/06/21 07:14:15;;;;;;;14.05;5.00;;;;;;;;;;4972976;28;20488;-70
2022/06/21 07:16:42;;;;;;;13.02;4.68;;;;;;;;;;4972488;28;20034;-72
2022/06/21 07:19:10;;;;;;;14.70;4.85;;;;;;;;;;4973123;28;20022;-71
2022/06/21 07:21:37;;;;;;;13.73;4.95;;;;;;;;;;4973377;28;20077;-71
2022/06/21 07:24:04;;;;;;;18.05;5.60;;;;;;;;;;4972718;28;20387;-71
2022/06/21 07:26:33;;;;;;;14.88;5.80;;;;;;;;;;4973057;28;20518;-71
2022/06/21 07:28:59;;;;;;;16.20;4.80;;;;;;;;;;4972830;28;20492;-71
2022/06/21 07:31:28;;;;;;;13.65;5.13;;;;;;;;;;4972043;28;20022;-71
2022/06/21 07:34:03;;;;;;;16.58;5.20;;;;;;;;;;4972524;28;20110;-72
2022/06/21 07:36:32;;;;;;;14.43;5.03;;;;;;;;;;4972401;28;20037;-71
2022/06/21 07:39:07;;;;;;;14.00;5.00;;;;;;;;;;4972414;28;20021;-72
2022/06/21 07:41:42;;;;;;;16.40;5.20;;;;;;;;;;4971039;28;20035;-71
2022/06/21 07:44:14;;;;;;;13.85;5.28;;;;;;;;;;4964346;28;20033;-71
2022/06/21 07:46:44;;;;;;;20.63;5.47;;;;;;;;;;4972422;28;20049;-72
2022/06/21 07:49:16;;;;;;;22.65;5.70;;;;;;;;;;4972186;28;20487;-71
2022/06/21 07:51:45;;;;;;;19.33;5.78;;;;;;;;;;4972577;28;20035;-72
2022/06/21 07:54:24;;;;;;;16.52;5.22;;;;;;;;;;4972261;28;20031;-71
2022/06/21 07:56:56;;;;;;;18.58;5.55;;;;;;;;;;4972082;28;20031;-71
2022/06/21 07:59:28;;;;;;;19.40;5.70;;;;;;;;;;4971066;28;20026;-71
2022/06/21 08:07:54;;;;;;;21.05;5.60;;;;;;;;;;4972071;28;20041;-72
2022/06/21 08:10:27;;;;;;;17.02;5.55;;;;;;;;;;4973449;28;20528;-71
2022/06/21 08:12:54;;;;;;;30.65;6.65;;;;;;;;;;4972419;28;20019;-71
2022/06/21 08:15:21;;;;;;;26.58;6.15;;;;;;;;;;4971552;28;20050;-71
2022/06/21 08:17:53;;;;;;;14.73;5.65;;;;;;;;;;4969930;28;20031;-72
2022/06/21 08:20:43;;;;;;;21.67;5.68;;;;;;;;;;4971732;28;20035;-71
2022/06/21 08:23:21;;;;;;;21.45;5.82;;;;;;;;;;4961850;28;20043;-71
2022/06/21 08:26:06;;;;;;;24.30;6.10;;;;;;;;;;4968864;28;20026;-72
2022/06/21 08:28:33;;;;;;;21.17;5.60;;;;;;;;;;4956718;28;20395;-71
2022/06/21 08:31:02;;;;;;;20.98;5.47;;;;;;;;;;4971608;28;20092;-70
2022/06/21 08:33:47;;;;;;;24.52;6.13;;;;;;;;;;4971632;28;20336;-71
2022/06/21 08:36:20;;;;;;;20.33;5.70;;;;;;;;;;4970065;28;20027;-71
2022/06/21 08:39:05;;;;;;;25.75;6.78;;;;;;;;;;4971753;28;20023;-71
2022/06/21 08:41:55;;;;;;;22.52;6.60;;;;;;;;;;4971642;28;20057;-71
2022/06/21 08:44:39;;;;;;;29.13;6.03;;;;;;;;;;4964232;28;20053;-71
2022/06/21 08:47:24;;;;;;;26.73;6.13;;;;;;;;;;4967515;28;20038;-71
2022/06/21 08:50:00;;;;;;;30.15;7.00;;;;;;;;;;4967978;28;20035;-71
2022/06/21 08:52:35;;;;;;;23.25;6.65;;;;;;;;;;4957895;28;20023;-70
2022/06/21 08:55:10;;;;;;;42.65;7.47;;;;;;;;;;4973011;28;20037;-69
2022/06/21 08:57:55;;;;;;;20.27;6.35;;;;;;;;;;4974088;28;20030;-69
2022/06/21 09:00:34;;;;;;;26.58;6.32;;;;;;;;;;4974829;28;20052;-69
2022/06/21 09:03:19;;;;;;;39.08;6.88;;;;;;;;;;4972931;28;20034;-70
2022/06/21 09:06:12;;;;;;;27.20;6.85;;;;;;;;;;4974506;28;20033;-71
2022/06/21 09:08:40;;;;;;;21.45;6.18;;;;;;;;;;4965423;28;20035;-70
2022/06/21 09:11:16;;;;;;;28.95;6.97;;;;;;;;;;4965633;28;20033;-70
2022/06/21 09:14:01;;;;;;;25.25;6.18;;;;;;;;;;4956580;28;20501;-71
2022/06/21 09:16:54;;;;;;;27.60;6.55;;;;;;;;;;4968908;28;20019;-70
2022/06/21 09:19:20;;;;;;;23.58;6.40;;;;;;;;;;4914778;29;20032;-71
2022/06/21 09:21:58;;;;;;;84.65;9.30;;;;;;;;;;4905131;29;20534;-70
2022/06/21 09:24:50;;;;;;;32.25;7.13;;;;;;;;;;4913218;29;20133;-70
2022/06/21 09:27:16;;;;;;;19.42;5.63;;;;;;;;;;4910748;29;20422;-71
2022/06/21 09:29:42;;;;;;;20.88;6.35;;;;;;;;;;4910614;29;20047;-71
2022/06/21 09:32:08;;;;;;;25.05;6.75;;;;;;;;;;4910463;29;20032;-70
2022/06/21 09:35:13;;;;;;;27.23;7.03;;;;;;;;;;4909846;29;20042;-71
2022/06/21 09:37:45;;;;;;;24.58;6.88;;;;;;;;;;4877427;29;20498;-71
2022/06/21 09:40:14;;;;;;;35.70;7.15;;;;;;;;;;4876380;29;20041;-69
2022/06/21 09:42:49;;;;;;;35.55;7.35;;;;;;;;;;4877314;29;20137;-70
2022/06/21 09:45:21;;;;;;;27.63;7.95;;;;;;;;;;4877245;29;20029;-69
2022/06/21 09:48:02;;;;;;;26.95;7.93;;;;;;;;;;4873413;29;20033;-70
2022/06/21 09:50:47;;;;;;;31.48;7.60;;;;;;;;;;4875860;29;20040;-71
2022/06/21 09:53:13;;;;;;;21.63;8.05;;;;;;;;;;4876561;29;20513;-70
2022/06/21 09:55:48;;;;;;;24.55;8.57;;;;;;;;;;4893595;29;20105;-70
2022/06/21 09:58:43;;;;;;;28.48;7.82;;;;;;;;;;4933333;29;20035;-69
2022/06/21 10:01:20;;;;;;;26.15;7.38;;;;;;;;;;4913738;29;20075;-69
2022/06/21 10:03:54;;;;;;;28.75;7.35;;;;;;;;;;4913912;29;20421;-71
2022/06/21 10:06:43;;;;;;;21.27;7.50;;;;;;;;;;4913935;29;20051;-71
2022/06/21 10:09:30;;;;;;;21.63;6.88;;;;;;;;;;4898839;29;20533;-71
2022/06/21 10:12:14;;;;;;;22.50;7.20;;;;;;;;;;4894536;29;20044;-72
2022/06/21 10:15:00;;;;;;;23.58;6.80;;;;;;;;;;4894452;29;20079;-70
2022/06/21 10:17:38;;;;;;;23.08;6.75;;;;;;;;;;4895582;29;20032;-71
2022/06/21 10:20:07;;;;;;;21.92;6.97;;;;;;;;;;4879687;29;20028;-70
2022/06/21 10:22:39;;;;;;;30.02;7.07;;;;;;;;;;4895515;29;20036;-71
2022/06/21 10:25:24;;;;;;;24.52;6.35;;;;;;;;;;4895188;29;20049;-71
2022/06/21 10:28:07;;;;;;;21.15;6.20;;;;;;;;;;4892127;29;20043;-71
2022/06/21 10:30:41;;;;;;;23.02;6.72;;;;;;;;;;4895945;29;20136;-71
2022/06/21 10:33:19;;;;;;;26.02;7.47;;;;;;;;;;4895367;29;20033;-71
2022/06/21 10:35:55;;;;;;;18.95;6.82;;;;;;;;;;4895406;29;20032;-72
2022/06/21 10:38:33;;;;;;;25.13;7.30;;;;;;;;;;4960059;28;20035;-69
2022/06/21 10:41:10;;;;;;;23.38;7.45;;;;;;;;;;4973102;28;20062;-70
2022/06/21 10:43:59;;;;;;;22.42;7.53;;;;;;;;;;4973698;28;20126;-73
2022/06/21 10:46:26;;;;;;;28.65;7.60;;;;;;;;;;4899162;29;20054;-80
2022/06/21 10:48:58;;;;;;;21.85;7.15;;;;;;;;;;4910597;29;20409;-80
2022/06/21 10:51:24;;;;;;;21.55;7.38;;;;;;;;;;4909959;29;20050;-80
2022/06/21 10:53:50;;;;;;;28.67;7.43;;;;;;;;;;4909251;29;20645;-80
2022/06/21 10:59:19;;;;;;;24.48;7.35;;;;;;;;;;4909588;29;20033;-80
2022/06/21 11:02:12;;;;;;;25.63;6.88;;;;;;;;;;4910108;29;20036;-81
2022/06/21 11:04:52;;;;;;;32.92;8.68;;;;;;;;;;4911849;29;20440;-81
2022/06/21 11:07:19;;;;;;;25.42;7.45;;;;;;;;;;4897686;29;20032;-81
2022/06/21 11:09:54;;;;;;;29.83;8.02;;;;;;;;;;4909601;29;20032;-80
2022/06/21 11:15:37;;;;;;;20.27;7.32;;;;;;;;;;4908202;29;20059;-81
2022/06/21 11:18:08;;;;;;;20.55;6.50;;;;;;;;;;4909040;29;20032;-80
2022/06/21 11:20:37;;;;;;;24.40;7.30;;;;;;;;;;4909146;29;20036;-83
2022/06/21 11:23:10;;;;;;;27.02;7.18;;;;;;;;;;4932287;28;20085;-80
2022/06/21 11:25:55;;;;;;;25.25;6.97;;;;;;;;;;4972946;28;20029;-80
2022/06/21 11:28:24;;;;;;;39.40;8.05;;;;;;;;;;4971711;28;20038;-81
2022/06/21 11:30:57;;;;;;;21.08;6.47;;;;;;;;;;4973224;28;20038;-81
2022/06/21 11:33:24;;;;;;;24.10;7.22;;;;;;;;;;4972696;28;20031;-80
2022/06/21 11:36:11;;;;;;;25.25;7.03;;;;;;;;;;4972840;28;20019;-80
2022/06/21 11:38:55;;;;;;;21.95;7.05;;;;;;;;;;4972806;28;20023;-80
2022/06/21 11:44:27;;;;;;;24.35;7.30;;;;;;;;;;4972484;28;20019;-80
2022/06/21 11:46:57;;;;;;;18.52;7.13;;;;;;;;;;4972509;28;20045;-81
2022/06/21 11:49:27;;;;;;;18.67;5.82;;;;;;;;;;4956891;28;20382;-81
2022/06/21 11:51:53;;;;;;;24.60;7.43;;;;;;;;;;4969151;28;20089;-81
2022/06/21 11:54:29;;;;;;;21.70;6.68;;;;;;;;;;4972437;28;20028;-80
2022/06/21 11:57:05;;;;;;;20.98;6.93;;;;;;;;;;4972243;28;20464;-80
2022/06/21 11:59:46;;;;;;;19.35;6.13;;;;;;;;;;4972230;28;20019;-80
2022/06/21 12:02:15;;;;;;;18.13;5.57;;;;;;;;;;4972377;28;20031;-81
2022/06/21 12:05:05;;;;;;;17.50;5.57;;;;;;;;;;4972201;28;20037;-80
2022/06/21 12:07:40;;;;;;;16.42;5.50;;;;;;;;;;4949821;28;20030;-81
2022/06/21 12:10:20;;;;;;;18.50;5.75;;;;;;;;;;4972472;28;20504;-81
2022/06/21 12:12:47;;;;;;;22.30;5.70;;;;;;;;;;4968516;28;20034;-81
2022/06/21 12:15:32;;;;;;;15.15;5.43;;;;;;;;;;4971040;28;20056;-80
2022/06/21 12:18:00;;;;;;;17.75;5.40;;;;;;;;;;4972099;28;20050;-80
2022/06/21 12:20:26;;;;;;;14.77;5.18;;;;;;;;;;4972109;28;20027;-79
2022/06/21 12:23:07;;;;;;;24.17;5.43;;;;;;;;;;4971778;28;20027;-82
2022/06/21 12:25:33;;;;;;;16.00;5.38;;;;;;;;;;4956468;28;20402;-80
2022/06/21 12:28:00;;;;;;;20.45;4.97;;;;;;;;;;4975910;28;20029;-81
2022/06/21 12:30:28;;;;;;;19.77;5.47;;;;;;;;;;4975678;28;20350;-81
2022/06/21 12:32:58;;;;;;;23.45;4.95;;;;;;;;;;4972436;28;20023;-81
2022/06/21 12:35:39;;;;;;;23.23;5.23;;;;;;;;;;4975487;28;20026;-82
2022/06/21 12:38:07;;;;;;;24.70;5.50;;;;;;;;;;4975794;28;20026;-82
2022/06/21 12:40:36;;;;;;;21.92;5.50;;;;;;;;;;4973962;28;20035;-80
2022/06/21 12:43:21;;;;;;;17.50;5.05;;;;;;;;;;4975609;28;20048;-81
2022/06/21 12:45:50;;;;;;;18.75;5.65;;;;;;;;;;4976231;28;20108;-82
2022/06/21 12:48:32;;;;;;;15.20;4.90;;;;;;;;;;4975507;28;20518;-82
2022/06/21 12:51:15;;;;;;;21.02;5.05;;;;;;;;;;4975678;28;20031;-83
2022/06/21 12:53:48;;;;;;;17.88;4.85;;;;;;;;;;4975293;28;20033;-81
2022/06/21 12:56:20;;;;;;;19.65;5.53;;;;;;;;;;4975101;28;20042;-83
2022/06/21 12:59:02;;;;;;;22.58;5.55;;;;;;;;;;4975668;28;20029;-82
2022/06/21 13:01:31;;;;;;;26.25;5.30;;;;;;;;;;4960578;28;20033;-82
2022/06/21 13:04:03;;;;;;;17.50;5.10;;;;;;;;;;4975234;28;20034;-83
2022/06/21 13:06:50;;;;;;;24.70;5.55;;;;;;;;;;4973951;28;20027;-78
2022/06/21 13:09:16;;;;;;;20.50;5.28;;;;;;;;;;4964699;28;20047;-82
2022/06/21 13:11:42;;;;;;;18.80;5.18;;;;;;;;;;4972512;28;20027;-80
2022/06/21 13:14:12;;;;;;;26.50;5.50;;;;;;;;;;4972699;28;20050;-82
2022/06/21 13:17:04;;;;;;;22.27;5.55;;;;;;;;;;4972586;28;20023;-81
2022/06/21 13:19:37;;;;;;;25.33;5.65;;;;;;;;;;4928501;29;20032;-81
2022/06/21 13:22:12;;;;;;;23.45;5.00;;;;;;;;;;4932301;29;20504;-79
2022/06/21 13:24:45;;;;;;;26.85;5.45;;;;;;;;;;4933675;29;20060;-82
2022/06/21 13:27:20;;;;;;;18.15;5.00;;;;;;;;;;4931896;29;20028;-80
2022/06/21 13:29:54;;;;;;;32.72;5.85;;;;;;;;;;4931380;29;20578;-79
2022/06/21 13:32:25;;;;;;;23.88;5.95;;;;;;;;;;4930234;29;20024;-80
2022/06/21 13:34:57;;;;;;;27.00;6.28;;;;;;;;;;4929759;29;20050;-79
2022/06/21 13:37:32;;;;;;;19.80;5.85;;;;;;;;;;4928700;29;20537;-80
2022/06/21 13:40:17;;;;;;;21.17;5.35;;;;;;;;;;4931987;29;20032;-72
2022/06/21 13:42:49;;;;;;;24.58;6.35;;;;;;;;;;4928230;29;20062;-71
2022/06/21 13:45:27;;;;;;;20.88;5.55;;;;;;;;;;4929242;29;20082;-71
2022/06/21 13:48:12;;;;;;;18.73;5.20;;;;;;;;;;4927662;29;20036;-71
2022/06/21 13:50:41;;;;;;;18.98;5.15;;;;;;;;;;4932094;29;20513;-69
2022/06/21 13:53:16;;;;;;;22.30;5.88;;;;;;;;;;4924961;29;20024;-71
2022/06/21 13:55:45;;;;;;;22.88;5.45;;;;;;;;;;4930380;28;20085;-71
2022/06/21 13:58:18;;;;;;;18.13;5.25;;;;;;;;;;4973305;28;20023;-71
2022/06/21 14:01:07;;;;;;;17.40;5.70;;;;;;;;;;4973561;28;20023;-71
2022/06/21 14:03:52;;;;;;;22.13;5.85;;;;;;;;;;4930406;29;20066;-70
2022/06/21 14:06:19;;;;;;;24.33;5.82;;;;;;;;;;4930012;29;20036;-70
2022/06/21 14:09:05;;;;;;;21.83;5.20;;;;;;;;;;4930145;29;20051;-71
2022/06/21 14:11:37;;;;;;;27.40;6.05;;;;;;;;;;4931228;29;20267;-71
2022/06/21 14:14:22;;;;;;;21.52;5.65;;;;;;;;;;4889315;29;1216832;-71
2022/06/21 14:16:52;;;;;;;23.80;5.63;;;;;;;;;;4929857;29;20528;-71
2022/06/21 14:19:21;;;;;;;25.83;5.40;;;;;;;;;;4931864;29;20048;-71
2022/06/21 14:21:59;;;;;;;36.47;5.97;;;;;;;;;;4933859;29;20048;-71
2022/06/21 14:24:50;;;;;;;36.65;5.72;;;;;;;;;;4933513;29;20497;-71
2022/06/21 14:27:35;;;;;;;25.92;5.70;;;;;;;;;;4931169;29;20032;-71
2022/06/21 14:30:06;;;;;;;22.58;5.68;;;;;;;;;;4929258;29;20070;-71
2022/06/21 14:32:48;;;;;;;24.83;5.18;;;;;;;;;;4931511;29;20030;-71
2022/06/21 14:35:50;;;;;;;23.08;6.63;;;;;;;;;;4923074;29;20409;-71
2022/06/21 14:38:19;;;;;;;21.67;5.15;;;;;;;;;;4894441;29;20072;-71
2022/06/21 14:40:47;;;;;;;30.67;5.95;;;;;;;;;;4916582;29;20044;-71
2022/06/21 14:43:32;;;;;;;26.77;6.35;;;;;;;;;;4932768;29;20043;-70
2022/06/21 14:46:04;;;;;;;34.72;7.00;;;;;;;;;;4916440;29;20050;-71
2022/06/21 14:48:31;;;;;;;23.58;5.75;;;;;;;;;;4932591;29;20031;-71
2022/06/21 14:51:02;;;;;;;26.15;6.00;;;;;;;;;;4931042;29;20080;-71
2022/06/21 14:53:44;;;;;;;27.95;6.70;;;;;;;;;;4931765;29;20036;-71
2022/06/21 14:56:23;;;;;;;31.67;6.00;;;;;;;;;;4932647;29;20035;-71
2022/06/21 14:58:53;;;;;;;27.48;5.50;;;;;;;;;;4932184;29;20050;-71
2022/06/21 15:01:38;;;;;;;31.88;5.85;;;;;;;;;;4932288;29;20661;-71
2022/06/21 15:04:10;;;;;;;27.85;6.25;;;;;;;;;;4928114;29;20038;-70
2022/06/21 15:06:39;;;;;;;28.48;5.95;;;;;;;;;;4933222;29;20044;-71
2022/06/21 15:09:17;;;;;;;27.02;6.25;;;;;;;;;;4932591;29;20091;-71
2022/06/21 15:12:10;;;;;;;34.15;6.93;;;;;;;;;;4944006;28;20038;-71
2022/06/21 15:14:39;;;;;;;28.73;5.75;;;;;;;;;;4971219;28;20043;-71
2022/06/21 15:17:18;;;;;;;31.58;6.90;;;;;;;;;;4972405;28;20451;-71
2022/06/21 15:19:56;;;;;;;30.48;6.15;;;;;;;;;;4973022;28;20026;-71
2022/06/21 15:22:36;;;;;;;32.05;5.72;;;;;;;;;;4973058;28;20043;-71
2022/06/21 15:25:17;;;;;;;36.35;6.72;;;;;;;;;;4969450;28;20019;-71